Time;durP1;ratioP1;P1;durP2;ratioP2;P2;SDS_P1;SDS_P2;PMS_P1;PMS_P2;Temp;Humidity;BMP_temperature;BMP_pressure;BME280_temperature;BME280_humidity;BME280_pressure;Samples;Min_cycle;Max_cycle;Signal;HPM_P1;HPM_P2
2022/08/02 00:02:20;;;;;;;62.67;52.08;;;26.20;57.40;;;;;;4945415;28;90081;-54
2022/08/02 00:04:46;;;;;;;65.28;52.08;;;26.20;57.50;;;;;;4947775;28;91328;-52
2022/08/02 00:07:11;;;;;;;62.22;51.95;;;26.20;57.50;;;;;;4927462;28;90347;-55
2022/08/02 00:09:37;;;;;;;63.95;52.30;;;26.20;57.30;;;;;;4936570;28;90392;-50
2022/08/02 00:12:03;;;;;;;63.50;52.13;;;26.20;57.30;;;;;;4938514;28;92280;-54
2022/08/02 00:14:29;;;;;;;63.05;52.00;;;26.20;57.30;;;;;;4936323;28;91129;-55
2022/08/02 00:16:55;;;;;;;62.90;52.03;;;26.20;57.40;;;;;;4944825;28;90185;-55
2022/08/02 00:19:20;;;;;;;63.28;51.80;;;26.10;57.20;;;;;;4941628;28;90770;-52
2022/08/02 00:21:47;;;;;;;65.00;51.95;;;26.10;57.20;;;;;;4943441;28;91540;-53
2022/08/02 00:24:12;;;;;;;62.58;51.80;;;26.10;57.30;;;;;;4943542;28;90023;-54
2022/08/02 00:26:38;;;;;;;65.13;52.15;;;26.10;57.30;;;;;;4938907;28;95258;-55
2022/08/02 00:29:04;;;;;;;63.30;51.90;;;26.10;57.30;;;;;;4947155;28;89893;-55
2022/08/02 00:31:30;;;;;;;64.13;52.13;;;26.10;57.30;;;;;;4942625;28;89997;-55
2022/08/02 00:33:55;;;;;;;62.78;52.00;;;26.10;57.10;;;;;;4934947;28;94092;-55
2022/08/02 00:36:21;;;;;;;62.70;51.90;;;26.10;57.70;;;;;;4933424;28;89824;-55
2022/08/02 00:38:47;;;;;;;62.30;51.65;;;26.10;57.20;;;;;;4945049;28;89911;-54
2022/08/02 00:41:21;;;;;;;62.53;51.75;;;26.10;57.10;;;;;;4940741;28;92494;-55
2022/08/02 00:43:48;;;;;;;62.25;51.97;;;26.00;57.20;;;;;;4936897;28;90200;-55
2022/08/02 00:46:15;;;;;;;62.33;51.90;;;26.10;57.10;;;;;;4934869;28;92178;-54
2022/08/02 00:48:40;;;;;;;67.85;51.78;;;26.00;57.20;;;;;;4946261;28;94025;-55
2022/08/02 00:51:06;;;;;;;62.63;51.78;;;26.00;57.20;;;;;;4934638;28;89652;-55
2022/08/02 00:53:32;;;;;;;62.42;51.88;;;26.00;57.30;;;;;;4938345;28;93001;-54
2022/08/02 00:55:58;;;;;;;62.80;51.97;;;26.00;57.30;;;;;;4952657;28;92824;-54
2022/08/02 00:58:24;;;;;;;62.28;51.63;;;26.00;57.30;;;;;;4956681;28;89629;-55
2022/08/02 01:00:50;;;;;;;62.92;52.08;;;26.00;57.30;;;;;;4936235;28;89787;-53
2022/08/02 01:03:15;;;;;;;62.28;51.80;;;26.00;57.20;;;;;;4928085;28;93064;-52
2022/08/02 01:05:43;;;;;;;61.58;51.45;;;26.00;57.30;;;;;;4951346;28;91858;-55
2022/08/02 01:08:09;;;;;;;62.85;51.95;;;26.00;57.30;;;;;;4939471;28;90805;-53
2022/08/02 01:10:35;;;;;;;62.42;51.75;;;26.00;57.30;;;;;;4935302;28;92905;-55
2022/08/02 01:13:00;;;;;;;61.85;51.63;;;26.00;57.30;;;;;;4943852;28;90431;-55
2022/08/02 01:15:27;;;;;;;61.85;51.65;;;26.00;57.30;;;;;;4939007;28;92938;-52
2022/08/02 01:18:10;;;;;;;61.92;51.70;;;26.00;57.30;;;;;;4938781;28;95409;-54
2022/08/02 01:20:58;;;;;;;62.97;51.63;;;26.00;57.30;;;;;;4944333;28;89912;-55
2022/08/02 01:23:36;;;;;;;62.88;51.75;;;25.90;57.40;;;;;;4938503;28;92362;-54
2022/08/02 01:26:21;;;;;;;63.03;51.70;;;25.90;57.60;;;;;;4929333;28;90257;-55
2022/08/02 01:29:13;;;;;;;61.28;51.60;;;25.90;57.70;;;;;;4924363;28;89967;-53
2022/08/02 01:31:47;;;;;;;62.20;51.65;;;25.80;57.80;;;;;;4939405;28;90665;-54
2022/08/02 01:34:33;;;;;;;62.35;51.40;;;25.80;57.90;;;;;;4929551;28;89712;-55
2022/08/02 01:37:19;;;;;;;61.10;51.28;;;25.80;58.00;;;;;;4940715;28;92675;-55
2022/08/02 01:39:49;;;;;;;63.70;51.92;;;25.80;58.10;;;;;;4950364;28;90846;-54
2022/08/02 01:42:17;;;;;;;62.17;51.80;;;25.80;57.90;;;;;;4944821;28;92462;-51
2022/08/02 01:44:44;;;;;;;62.00;51.72;;;25.70;58.10;;;;;;4948969;28;93273;-55
2022/08/02 01:47:20;;;;;;;61.45;51.75;;;25.70;58.20;;;;;;4937839;28;91757;-53
2022/08/02 01:49:50;;;;;;;62.13;51.75;;;25.70;58.20;;;;;;4936155;28;90879;-55
2022/08/02 01:52:20;;;;;;;63.47;51.87;;;25.70;58.30;;;;;;4941582;28;90076;-55
2022/08/02 01:54:55;;;;;;;61.58;51.63;;;25.60;58.20;;;;;;4949309;28;90117;-55
2022/08/02 01:57:23;;;;;;;62.97;51.80;;;25.60;58.20;;;;;;4930264;28;89507;-55
2022/08/02 01:59:50;;;;;;;62.00;51.83;;;25.60;58.50;;;;;;4938444;28;91062;-53
2022/08/02 02:02:17;;;;;;;61.88;51.75;;;25.60;58.50;;;;;;4933737;28;91820;-55
2022/08/02 02:04:45;;;;;;;60.97;51.20;;;25.60;58.60;;;;;;4943185;28;89706;-53
2022/08/02 02:07:14;;;;;;;62.20;51.90;;;25.50;58.50;;;;;;4942504;28;95963;-55
2022/08/02 02:09:42;;;;;;;63.22;51.58;;;25.50;58.40;;;;;;4938409;28;90419;-51
2022/08/02 02:12:11;;;;;;;61.60;51.45;;;25.50;58.60;;;;;;4940076;28;89884;-52
2022/08/02 02:14:38;;;;;;;62.78;51.70;;;25.50;58.70;;;;;;4949745;28;90872;-55
2022/08/02 02:17:05;;;;;;;61.58;51.60;;;25.50;58.80;;;;;;4935645;28;90699;-55
2022/08/02 02:19:34;;;;;;;61.88;51.95;;;25.40;58.70;;;;;;4942902;28;89727;-53
2022/08/02 02:22:00;;;;;;;61.83;51.75;;;25.40;58.90;;;;;;4949717;28;89387;-55
2022/08/02 02:24:26;;;;;;;61.83;51.72;;;25.40;58.80;;;;;;4951221;28;95669;-55
2022/08/02 02:26:52;;;;;;;61.92;51.28;;;25.40;58.90;;;;;;4939592;28;91927;-52
2022/08/02 02:29:20;;;;;;;61.13;51.55;;;25.40;58.80;;;;;;4939456;28;93575;-52
2022/08/02 02:31:48;;;;;;;62.10;51.45;;;25.40;58.90;;;;;;4948548;28;91628;-55
2022/08/02 02:34:21;;;;;;;61.47;51.67;;;25.40;58.90;;;;;;4946783;28;90207;-54
2022/08/02 02:36:50;;;;;;;61.20;51.42;;;25.40;58.90;;;;;;4933723;28;89893;-54
2022/08/02 02:39:19;;;;;;;61.65;51.70;;;25.40;59.00;;;;;;4947121;28;90362;-54
2022/08/02 02:41:46;;;;;;;61.10;51.40;;;25.40;59.10;;;;;;4940810;28;93267;-53
2022/08/02 02:44:17;;;;;;;62.35;51.65;;;25.40;59.20;;;;;;4950032;28;90945;-55
2022/08/02 02:46:43;;;;;;;62.00;51.45;;;25.30;59.10;;;;;;4945317;28;90339;-55
2022/08/02 02:49:10;;;;;;;62.05;51.40;;;25.30;59.10;;;;;;4949295;28;90077;-52
2022/08/02 02:51:39;;;;;;;62.33;51.83;;;25.30;59.00;;;;;;4947343;28;91491;-55
2022/08/02 02:54:07;;;;;;;61.45;51.55;;;25.30;59.10;;;;;;4944075;28;92941;-53
2022/08/02 02:56:35;;;;;;;62.40;51.15;;;25.30;59.10;;;;;;4932490;28;90757;-55
2022/08/02 02:59:01;;;;;;;61.78;51.33;;;25.30;59.00;;;;;;4942973;28;92159;-52
2022/08/02 03:01:29;;;;;;;61.75;51.35;;;25.30;59.10;;;;;;4940562;28;90811;-55
2022/08/02 03:04:06;;;;;;;61.17;51.58;;;25.30;59.10;;;;;;4948534;28;97077;-55
2022/08/02 03:06:32;;;;;;;61.40;51.30;;;25.30;59.20;;;;;;4948550;28;90650;-52
2022/08/02 03:08:59;;;;;;;61.38;51.38;;;25.20;59.10;;;;;;4941027;28;89996;-53
2022/08/02 03:11:29;;;;;;;61.13;51.53;;;25.20;59.10;;;;;;4939524;28;91474;-53
2022/08/02 03:14:03;;;;;;;60.78;51.20;;;25.20;59.00;;;;;;4945961;28;94964;-52
2022/08/02 03:16:29;;;;;;;62.83;51.60;;;25.20;59.20;;;;;;4941795;28;93399;-54
2022/08/02 03:18:56;;;;;;;61.15;51.28;;;25.20;59.10;;;;;;4945071;28;90884;-55
2022/08/02 03:21:22;;;;;;;61.70;51.42;;;25.20;59.10;;;;;;4941274;28;95458;-52
2022/08/02 03:23:48;;;;;;;60.88;51.40;;;25.20;59.10;;;;;;4951864;28;94685;-55
2022/08/02 03:26:14;;;;;;;60.85;51.28;;;25.20;59.00;;;;;;4942314;28;90276;-55
2022/08/02 03:28:40;;;;;;;60.67;51.40;;;25.20;59.00;;;;;;4936825;28;92174;-55
2022/08/02 03:31:06;;;;;;;61.60;51.30;;;25.20;59.00;;;;;;4933578;28;96026;-54
2022/08/02 03:33:33;;;;;;;61.60;51.50;;;25.20;59.10;;;;;;4955407;28;89664;-52
2022/08/02 03:36:04;;;;;;;62.22;51.80;;;25.20;59.00;;;;;;4931261;28;92214;-53
2022/08/02 03:38:31;;;;;;;;;;;25.20;59.10;;;;;;4947271;28;89915;-54
2022/08/02 03:40:58;;;;;;;61.92;51.72;;;25.20;59.10;;;;;;4948532;28;91012;-55
2022/08/02 03:43:25;;;;;;;61.75;51.33;;;25.10;59.10;;;;;;4947818;28;89832;-55
2022/08/02 03:45:51;;;;;;;62.67;51.72;;;25.10;59.10;;;;;;4950247;28;93020;-53
2022/08/02 03:48:17;;;;;;;62.28;51.42;;;25.20;59.40;;;;;;4942435;28;90653;-51
2022/08/02 03:50:46;;;;;;;61.70;51.38;;;25.10;59.20;;;;;;4946469;28;90319;-50
2022/08/02 03:53:14;;;;;;;61.45;51.60;;;25.10;59.40;;;;;;4938025;28;91613;-55
2022/08/02 03:55:40;;;;;;;60.85;51.40;;;25.10;59.30;;;;;;4936450;28;89681;-54
2022/08/02 03:58:05;;;;;;;61.47;51.42;;;25.10;59.30;;;;;;4933914;28;91699;-55
2022/08/02 04:00:31;;;;;;;61.47;51.28;;;25.10;59.40;;;;;;4940254;28;91402;-55
2022/08/02 04:02:57;;;;;;;60.80;51.33;;;25.10;59.20;;;;;;4935409;28;93690;-54
2022/08/02 04:05:24;;;;;;;60.58;51.15;;;25.10;59.30;;;;;;4941806;28;91636;-53
2022/08/02 04:07:50;;;;;;;62.05;51.38;;;25.10;59.50;;;;;;4948086;28;90668;-55
2022/08/02 04:10:16;;;;;;;61.50;51.40;;;25.10;59.20;;;;;;4949718;28;90076;-52
2022/08/02 04:12:42;;;;;;;61.67;51.38;;;25.10;59.40;;;;;;4939877;28;93784;-55
2022/08/02 04:15:11;;;;;;;61.58;51.25;;;25.00;59.40;;;;;;4935866;28;91892;-54
2022/08/02 04:17:41;;;;;;;60.88;51.05;;;25.00;59.40;;;;;;4942322;28;93058;-55
2022/08/02 04:20:17;;;;;;;63.53;51.45;;;25.10;59.40;;;;;;4943080;28;90127;-55
2022/08/02 04:22:59;;;;;;;62.35;51.58;;;25.10;59.50;;;;;;4935241;28;89519;-55
2022/08/02 04:25:25;;;;;;;62.70;51.40;;;25.00;59.50;;;;;;4946465;28;89761;-53
2022/08/02 04:27:52;;;;;;;61.95;51.47;;;25.00;59.50;;;;;;4949081;28;90606;-49
2022/08/02 04:30:20;;;;;;;62.13;51.28;;;25.10;59.40;;;;;;4945726;28;90431;-52
2022/08/02 04:32:46;;;;;;;64.72;51.58;;;25.00;59.40;;;;;;4936359;28;90620;-54
2022/08/02 04:35:12;;;;;;;62.00;51.50;;;25.00;59.50;;;;;;4929757;28;91065;-53
2022/08/02 04:37:38;;;;;;;62.50;51.45;;;24.90;59.50;;;;;;4938936;28;92329;-54
2022/08/02 04:40:11;;;;;;;62.33;51.50;;;24.90;59.50;;;;;;4944826;28;89782;-53
2022/08/02 04:42:38;;;;;;;64.63;51.45;;;25.00;59.60;;;;;;4945786;28;89840;-53
2022/08/02 04:45:05;;;;;;;63.15;51.72;;;25.00;59.60;;;;;;4940545;28;89967;-54
2022/08/02 04:47:31;;;;;;;65.28;51.97;;;24.90;59.60;;;;;;4941998;28;90324;-52
2022/08/02 04:49:56;;;;;;;63.10;52.05;;;25.00;59.50;;;;;;4936831;28;90532;-55
2022/08/02 04:52:22;;;;;;;62.65;52.08;;;24.90;59.50;;;;;;4929174;28;90349;-52
2022/08/02 04:54:50;;;;;;;62.55;51.85;;;24.90;59.50;;;;;;4931261;28;91048;-55
2022/08/02 05:00:00;;;;;;;64.63;52.38;;;24.90;59.50;;;;;;4942502;28;93244;-54
2022/08/02 05:02:25;;;;;;;65.00;52.33;;;24.90;59.60;;;;;;4938987;28;89734;-51
2022/08/02 05:04:51;;;;;;;66.22;52.60;;;24.90;59.50;;;;;;4942171;28;91979;-52
2022/08/02 05:07:17;;;;;;;63.92;52.15;;;24.90;59.50;;;;;;4937277;28;95438;-52
2022/08/02 05:09:42;;;;;;;64.75;52.28;;;24.90;59.70;;;;;;4947640;28;89874;-51
2022/08/02 05:12:08;;;;;;;63.72;52.28;;;24.90;59.60;;;;;;4930330;28;91247;-51
2022/08/02 05:14:34;;;;;;;63.22;52.20;;;24.90;59.70;;;;;;4938069;28;90274;-52
2022/08/02 05:17:00;;;;;;;65.82;52.20;;;24.90;59.60;;;;;;4948509;28;90434;-51
2022/08/02 05:19:25;;;;;;;62.17;51.72;;;24.90;59.70;;;;;;4937920;28;91017;-51
2022/08/02 05:21:51;;;;;;;62.78;52.03;;;25.00;59.50;;;;;;4937517;28;89832;-55
2022/08/02 05:24:17;;;;;;;64.72;51.88;;;24.90;59.50;;;;;;4931046;28;91573;-54
2022/08/02 05:26:42;;;;;;;64.70;51.70;;;25.00;59.50;;;;;;4951220;28;92255;-52
2022/08/02 05:29:08;;;;;;;63.47;52.28;;;25.00;59.40;;;;;;4938163;28;89963;-52
2022/08/02 05:31:33;;;;;;;62.75;51.88;;;25.00;59.30;;;;;;4944429;28;89995;-53
2022/08/02 05:33:59;;;;;;;62.30;51.50;;;25.00;59.20;;;;;;4947151;28;91421;-52
2022/08/02 05:36:25;;;;;;;63.75;52.10;;;25.00;59.20;;;;;;4941837;28;91242;-53
2022/08/02 05:38:51;;;;;;;65.10;52.05;;;25.00;59.40;;;;;;4950955;28;90130;-52
2022/08/02 05:41:18;;;;;;;63.15;51.80;;;25.00;59.40;;;;;;4933512;28;91336;-52
2022/08/02 05:43:44;;;;;;;64.05;52.25;;;25.00;59.30;;;;;;4945323;28;91454;-51
2022/08/02 05:46:10;;;;;;;64.45;51.88;;;25.10;59.10;;;;;;4941171;28;90067;-53
2022/08/02 05:48:35;;;;;;;66.65;52.05;;;25.10;59.40;;;;;;4935543;28;90173;-48
2022/08/02 05:51:09;;;;;;;66.20;52.55;;;25.10;59.30;;;;;;4935240;28;89730;-54
2022/08/02 05:54:05;;;;;;;66.60;52.78;;;25.10;59.10;;;;;;4948654;28;90122;-54
2022/08/02 05:57:00;;;;;;;66.32;53.08;;;25.20;59.30;;;;;;4954083;28;89982;-53
2022/08/02 05:59:29;;;;;;;65.65;52.97;;;25.10;59.20;;;;;;4943066;28;90076;-55
2022/08/02 06:01:59;;;;;;;65.88;53.10;;;25.20;59.20;;;;;;4945437;28;88712;-54
2022/08/02 06:04:32;;;;;;;66.40;53.20;;;25.20;59.20;;;;;;4933702;28;89866;-54
2022/08/02 06:07:01;;;;;;;67.65;53.28;;;25.20;59.00;;;;;;4941898;28;92229;-54
2022/08/02 06:09:27;;;;;;;66.32;52.65;;;25.30;59.00;;;;;;4940783;28;94525;-55
2022/08/02 06:11:57;;;;;;;66.18;52.70;;;25.30;58.80;;;;;;4948271;28;90674;-51
2022/08/02 06:14:23;;;;;;;65.18;52.33;;;25.30;58.80;;;;;;4940729;28;91007;-53
2022/08/02 06:16:50;;;;;;;63.33;52.17;;;25.30;58.10;;;;;;4933690;28;89718;-52
2022/08/02 06:19:18;;;;;;;67.45;52.90;;;25.30;58.30;;;;;;4946803;28;89885;-53
2022/08/02 06:21:45;;;;;;;64.82;52.72;;;25.30;58.30;;;;;;4940460;28;93209;-55
2022/08/02 06:24:12;;;;;;;65.90;52.67;;;25.30;58.10;;;;;;4931057;28;90833;-55
2022/08/02 06:26:40;;;;;;;64.53;52.65;;;25.30;58.50;;;;;;4952438;28;89007;-55
2022/08/02 06:29:06;;;;;;;65.88;52.40;;;25.30;58.40;;;;;;4951082;28;89693;-51
2022/08/02 06:31:31;;;;;;;63.70;52.28;;;25.30;58.10;;;;;;4945001;28;91637;-55
2022/08/02 06:33:57;;;;;;;65.05;52.40;;;25.30;58.10;;;;;;4940422;28;98020;-54
2022/08/02 06:36:53;;;;;;;63.58;51.95;;;25.30;58.00;;;;;;4944334;28;92751;-55
2022/08/02 06:39:33;;;;;;;63.00;51.72;;;25.40;58.20;;;;;;4939560;28;90029;-54
2022/08/02 06:42:06;;;;;;;62.67;52.22;;;25.40;58.00;;;;;;4932942;28;89588;-54
2022/08/02 06:44:31;;;;;;;62.95;52.13;;;25.40;58.00;;;;;;4939722;28;90252;-55
2022/08/02 06:46:57;;;;;;;62.85;51.92;;;25.40;57.90;;;;;;4944889;28;89795;-55
2022/08/02 06:49:22;;;;;;;63.10;51.95;;;25.40;57.70;;;;;;4938082;28;90951;-53
2022/08/02 06:51:48;;;;;;;62.03;51.85;;;25.40;57.80;;;;;;4942860;28;90320;-52
2022/08/02 06:54:20;;;;;;;63.67;52.20;;;25.40;57.80;;;;;;4933289;28;91569;-53
2022/08/02 06:56:46;;;;;;;63.28;51.88;;;25.40;57.80;;;;;;4964762;28;89573;-55
2022/08/02 06:59:11;;;;;;;63.13;52.03;;;25.40;57.70;;;;;;4945272;28;90968;-49
2022/08/02 07:01:37;;;;;;;63.42;51.65;;;25.40;57.80;;;;;;4949047;28;95425;-55
2022/08/02 07:04:03;;;;;;;62.92;52.22;;;25.40;57.80;;;;;;4957766;28;92419;-52
2022/08/02 07:06:30;;;;;;;61.72;51.50;;;25.40;57.70;;;;;;4943085;28;90116;-52
2022/08/02 07:08:55;;;;;;;62.28;51.72;;;25.40;58.00;;;;;;4943251;28;89544;-51
2022/08/02 07:11:22;;;;;;;64.90;52.03;;;25.40;57.70;;;;;;4947703;28;89864;-50
2022/08/02 07:13:48;;;;;;;63.75;52.20;;;25.40;57.60;;;;;;4950325;28;91561;-52
2022/08/02 07:16:13;;;;;;;62.90;52.08;;;25.40;58.00;;;;;;4943004;28;90039;-54
2022/08/02 07:18:39;;;;;;;62.58;51.67;;;25.50;58.00;;;;;;4943393;28;91236;-52
2022/08/02 07:21:05;;;;;;;61.83;51.20;;;25.50;58.10;;;;;;4948274;28;89846;-54
2022/08/02 07:23:31;;;;;;;62.58;51.50;;;25.50;57.90;;;;;;4949877;28;91361;-55
2022/08/02 07:25:57;;;;;;;63.90;51.63;;;25.50;57.70;;;;;;4942329;28;91435;-53
2022/08/02 07:28:22;;;;;;;63.85;51.85;;;25.50;57.60;;;;;;4933920;28;95581;-52
2022/08/02 07:30:48;;;;;;;61.53;51.35;;;25.50;57.80;;;;;;4953419;28;91993;-53
2022/08/02 07:33:14;;;;;;;62.80;51.47;;;25.60;57.90;;;;;;4950521;28;89710;-50
2022/08/02 07:35:40;;;;;;;63.25;51.72;;;25.60;57.70;;;;;;4938451;28;90728;-52
2022/08/02 07:38:06;;;;;;;62.53;51.83;;;25.60;57.70;;;;;;4945594;28;89622;-55
2022/08/02 07:40:32;;;;;;;62.13;51.35;;;25.60;57.60;;;;;;4947293;28;89114;-53
2022/08/02 07:42:57;;;;;;;62.38;51.50;;;25.60;57.60;;;;;;4942888;28;94853;-54
2022/08/02 07:45:24;;;;;;;63.13;51.75;;;25.60;57.70;;;;;;4940409;28;92034;-52
2022/08/02 07:47:51;;;;;;;62.13;51.15;;;25.60;57.50;;;;;;4955355;28;91194;-55
2022/08/02 07:50:18;;;;;;;63.20;51.90;;;25.60;57.50;;;;;;4935589;28;89641;-54
2022/08/02 07:52:44;;;;;;;62.33;51.80;;;25.60;57.70;;;;;;4942375;28;90294;-54
2022/08/02 07:55:11;;;;;;;62.17;51.83;;;25.60;57.80;;;;;;4948159;28;90594;-54
2022/08/02 07:57:38;;;;;;;62.65;51.83;;;25.60;57.50;;;;;;4953377;28;89826;-53
2022/08/02 08:00:05;;;;;;;63.45;51.55;;;25.70;57.80;;;;;;4949748;28;90238;-54
2022/08/02 08:02:31;;;;;;;62.20;51.40;;;25.70;57.70;;;;;;4946307;28;89930;-55
2022/08/02 08:04:57;;;;;;;62.08;51.47;;;25.70;58.20;;;;;;4949438;28;91689;-53
2022/08/02 08:07:23;;;;;;;62.50;51.45;;;25.70;57.60;;;;;;4954748;28;89887;-55
2022/08/02 08:09:49;;;;;;;62.10;51.55;;;25.80;57.60;;;;;;4938878;28;91470;-51
2022/08/02 08:12:15;;;;;;;62.47;51.47;;;25.70;57.50;;;;;;4944600;28;90881;-52
2022/08/02 08:14:41;;;;;;;63.08;51.17;;;25.70;57.40;;;;;;4952500;28;89800;-53
2022/08/02 08:17:07;;;;;;;62.08;51.42;;;25.80;57.30;;;;;;4935443;28;89501;-52
2022/08/02 08:19:33;;;;;;;62.97;51.72;;;25.80;57.40;;;;;;4941556;28;89712;-54
2022/08/02 08:21:59;;;;;;;62.03;51.45;;;25.80;57.70;;;;;;4945114;28;91249;-54
2022/08/02 08:24:26;;;;;;;61.97;51.65;;;25.80;57.40;;;;;;4953314;28;92514;-55
2022/08/02 08:26:51;;;;;;;62.60;51.72;;;25.80;57.60;;;;;;4953122;28;89755;-53
2022/08/02 08:29:17;;;;;;;62.58;51.22;;;25.80;57.50;;;;;;4949037;28;88798;-54
2022/08/02 08:31:43;;;;;;;63.03;51.90;;;25.90;57.50;;;;;;4946131;28;90439;-55
2022/08/02 08:34:09;;;;;;;62.08;51.67;;;25.90;57.40;;;;;;4947979;28;90439;-52
2022/08/02 08:36:34;;;;;;;62.28;51.65;;;25.90;57.30;;;;;;4938191;28;91076;-53
2022/08/02 08:39:00;;;;;;;63.20;51.65;;;26.00;57.20;;;;;;4938136;28;93948;-55
2022/08/02 08:41:26;;;;;;;63.83;51.72;;;26.00;57.10;;;;;;4945777;28;90111;-55
2022/08/02 08:43:51;;;;;;;61.72;51.45;;;26.10;57.00;;;;;;4941093;28;89843;-55
2022/08/02 08:46:29;;;;;;;63.38;51.85;;;26.10;56.70;;;;;;4944503;28;89563;-53
2022/08/02 08:49:05;;;;;;;62.75;51.55;;;26.10;56.70;;;;;;4940956;28;90915;-55
2022/08/02 08:51:37;;;;;;;62.97;51.38;;;26.20;56.70;;;;;;4944658;28;95501;-55
2022/08/02 08:54:05;;;;;;;62.63;51.70;;;26.20;56.60;;;;;;4946529;28;95587;-57
2022/08/02 08:56:33;;;;;;;63.60;51.83;;;26.30;56.50;;;;;;4943799;28;91557;-50
2022/08/02 08:58:59;;;;;;;64.78;50.92;;;26.40;56.30;;;;;;4940023;28;89628;-53
2022/08/02 09:01:25;;;;;;;64.75;51.65;;;26.50;56.20;;;;;;4945609;28;92779;-48
2022/08/02 09:03:51;;;;;;;63.53;51.50;;;26.60;56.10;;;;;;4949393;28;91431;-52
2022/08/02 09:06:16;;;;;;;62.58;51.28;;;26.50;55.90;;;;;;4941629;28;90066;-54
2022/08/02 09:08:43;;;;;;;63.05;51.58;;;26.50;55.90;;;;;;4946262;28;90036;-51
2022/08/02 09:11:29;;;;;;;62.05;51.35;;;26.50;55.80;;;;;;4944610;28;90271;-54
2022/08/02 09:13:57;;;;;;;63.08;51.65;;;26.50;55.90;;;;;;4948615;28;91528;-53
2022/08/02 09:16:28;;;;;;;63.78;51.58;;;26.50;55.90;;;;;;4953202;28;89730;-48
2022/08/02 09:18:54;;;;;;;62.10;51.33;;;26.50;56.00;;;;;;4939849;28;88837;-53
2022/08/02 09:21:20;;;;;;;62.47;51.58;;;26.50;55.90;;;;;;4930564;28;90757;-50
2022/08/02 09:23:48;;;;;;;64.45;51.35;;;26.60;55.90;;;;;;4955260;28;89824;-53
2022/08/02 09:26:18;;;;;;;68.50;51.60;;;26.50;55.90;;;;;;4937917;28;94674;-55
2022/08/02 09:28:46;;;;;;;62.05;51.47;;;26.50;56.00;;;;;;4944316;28;90032;-54
2022/08/02 09:31:13;;;;;;;79.65;51.85;;;26.60;55.90;;;;;;4943710;28;92667;-54
2022/08/02 09:33:41;;;;;;;64.10;51.45;;;26.60;55.80;;;;;;4948364;28;89409;-51
2022/08/02 09:36:08;;;;;;;62.13;51.55;;;26.70;55.80;;;;;;4939067;28;95354;-55
2022/08/02 09:38:35;;;;;;;63.95;51.83;;;26.70;55.70;;;;;;4945113;28;90463;-55
2022/08/02 09:41:03;;;;;;;63.25;51.53;;;26.70;55.70;;;;;;4932237;28;90587;-51
2022/08/02 09:43:34;;;;;;;63.20;51.53;;;26.70;55.80;;;;;;4942791;28;93842;-53
2022/08/02 09:46:10;;;;;;;67.15;51.72;;;26.80;55.80;;;;;;4943122;28;91184;-56
2022/08/02 09:48:49;;;;;;;63.67;51.35;;;26.80;55.60;;;;;;4938341;28;91390;-59
2022/08/02 09:51:23;;;;;;;63.05;51.55;;;26.80;55.70;;;;;;4942038;28;91531;-56
2022/08/02 09:53:57;;;;;;;63.92;51.63;;;26.80;55.80;;;;;;4943760;28;90947;-57
2022/08/02 09:56:25;;;;;;;64.05;51.85;;;26.80;56.10;;;;;;4948621;28;90347;-55
2022/08/02 09:58:53;;;;;;;63.70;51.58;;;26.80;56.20;;;;;;4936838;28;93522;-54
2022/08/02 10:01:31;;;;;;;63.55;51.85;;;26.80;56.20;;;;;;4943027;28;89518;-54
2022/08/02 10:03:59;;;;;;;64.82;51.95;;;26.80;56.20;;;;;;4939847;28;93934;-59
2022/08/02 10:06:26;;;;;;;63.33;51.78;;;26.80;56.20;;;;;;4937911;28;90931;-58
2022/08/02 10:08:52;;;;;;;63.42;51.95;;;26.80;56.10;;;;;;4943606;28;89358;-59
2022/08/02 10:11:22;;;;;;;64.28;51.92;;;26.80;55.90;;;;;;4934322;28;90402;-57
2022/08/02 10:13:48;;;;;;;65.97;51.80;;;26.90;55.80;;;;;;4942842;28;93074;-59
2022/08/02 10:16:15;;;;;;;63.40;51.75;;;26.90;55.70;;;;;;4947924;28;90646;-57
2022/08/02 10:18:42;;;;;;;62.88;51.63;;;26.90;55.60;;;;;;4944343;28;97343;-59
2022/08/02 10:21:14;;;;;;;65.25;52.28;;;26.90;55.60;;;;;;4946273;28;90165;-58
2022/08/02 10:23:42;;;;;;;64.45;52.03;;;26.90;55.60;;;;;;4935224;28;89811;-57
2022/08/02 10:26:08;;;;;;;63.63;52.05;;;26.90;55.50;;;;;;4944567;28;90215;-56
2022/08/02 10:28:36;;;;;;;63.63;51.92;;;26.90;55.50;;;;;;4936824;28;92752;-57
2022/08/02 10:31:04;;;;;;;65.60;52.15;;;26.90;55.60;;;;;;4929176;28;92450;-60
2022/08/02 10:33:34;;;;;;;63.90;52.15;;;26.90;55.40;;;;;;4939897;28;89278;-59
2022/08/02 10:36:01;;;;;;;62.95;51.92;;;26.90;55.30;;;;;;4951726;28;89909;-58
2022/08/02 10:38:27;;;;;;;65.53;52.22;;;26.90;55.80;;;;;;4942433;28;90384;-59
2022/08/02 10:40:54;;;;;;;64.38;51.85;;;26.90;55.20;;;;;;4944596;28;92891;-59
2022/08/02 10:43:35;;;;;;;62.53;51.65;;;27.00;55.20;;;;;;4938625;28;91064;-59
2022/08/02 10:46:20;;;;;;;64.20;52.08;;;27.00;55.10;;;;;;4948871;28;90795;-59
2022/08/02 10:49:07;;;;;;;62.85;51.90;;;27.00;55.10;;;;;;4953284;28;89915;-57
2022/08/02 10:52:01;;;;;;;64.35;52.00;;;27.00;55.10;;;;;;4949094;28;90188;-56
2022/08/02 10:54:56;;;;;;;65.20;51.83;;;27.00;55.00;;;;;;4944648;28;90321;-55
2022/08/02 10:57:27;;;;;;;62.67;51.78;;;27.00;55.00;;;;;;4938520;28;90099;-59
2022/08/02 11:00:31;;;;;;;63.13;51.83;;;27.10;55.00;;;;;;4945403;28;94364;-58
2022/08/02 11:02:57;;;;;;;63.35;52.03;;;27.00;55.00;;;;;;4941237;28;90396;-59
2022/08/02 11:05:33;;;;;;;63.00;51.85;;;27.00;54.90;;;;;;4943625;28;93193;-55
2022/08/02 11:08:17;;;;;;;63.13;51.95;;;27.10;54.90;;;;;;4934086;28;91180;-57
2022/08/02 11:10:43;;;;;;;64.03;51.75;;;27.10;54.90;;;;;;4941024;28;89809;-59
2022/08/02 11:13:09;;;;;;;63.17;52.05;;;27.10;54.90;;;;;;4941395;28;90109;-59
2022/08/02 11:16:07;;;;;;;62.88;51.63;;;27.10;54.90;;;;;;4950962;28;89902;-58
2022/08/02 11:18:51;;;;;;;62.97;51.97;;;27.10;54.80;;;;;;4944261;28;92308;-59
2022/08/02 11:21:22;;;;;;;64.68;52.03;;;27.10;54.90;;;;;;4942095;28;92456;-56
2022/08/02 11:23:48;;;;;;;63.67;52.10;;;27.10;54.80;;;;;;4942788;28;90573;-57
2022/08/02 11:26:29;;;;;;;62.97;51.88;;;27.10;54.80;;;;;;4947570;28;90298;-58
2022/08/02 11:28:59;;;;;;;62.60;51.60;;;27.10;54.80;;;;;;4946019;28;90234;-59
2022/08/02 11:31:26;;;;;;;62.85;51.75;;;27.10;54.90;;;;;;4942491;28;89854;-59
2022/08/02 11:33:52;;;;;;;62.65;51.63;;;27.10;54.80;;;;;;4955637;28;91612;-58
2022/08/02 11:36:18;;;;;;;63.83;51.70;;;27.10;54.80;;;;;;4938693;28;97240;-58
2022/08/02 11:38:44;;;;;;;63.40;51.95;;;27.10;54.80;;;;;;4937316;28;90233;-58
2022/08/02 11:41:21;;;;;;;63.75;52.15;;;27.20;54.90;;;;;;4942325;28;89458;-56
2022/08/02 11:43:53;;;;;;;63.05;51.97;;;27.20;54.80;;;;;;4950941;28;89964;-59
2022/08/02 11:46:19;;;;;;;63.60;51.80;;;27.20;54.80;;;;;;4948526;28;89979;-59
2022/08/02 11:48:45;;;;;;;63.45;52.28;;;27.20;54.70;;;;;;4946780;28;90695;-59
2022/08/02 11:51:15;;;;;;;63.65;52.08;;;27.20;54.70;;;;;;4936463;28;89214;-59
2022/08/02 11:53:42;;;;;;;63.53;52.03;;;27.20;54.70;;;;;;4953462;28;91282;-57
2022/08/02 11:56:09;;;;;;;63.45;52.05;;;27.20;54.70;;;;;;4941844;28;90229;-59
2022/08/02 11:58:36;;;;;;;63.72;52.25;;;27.20;54.90;;;;;;4936476;28;91590;-57
2022/08/02 12:01:02;;;;;;;64.47;51.83;;;27.20;54.70;;;;;;4945971;28;91633;-57
2022/08/02 12:03:33;;;;;;;64.00;51.92;;;27.20;54.70;;;;;;4946663;28;93182;-59
2022/08/02 12:05:59;;;;;;;63.25;52.15;;;27.20;54.60;;;;;;4940847;28;90623;-58
2022/08/02 12:08:25;;;;;;;62.97;51.97;;;27.30;54.70;;;;;;4943749;28;89674;-57
2022/08/02 12:10:51;;;;;;;63.25;51.78;;;27.20;54.60;;;;;;4951402;28;89864;-60
2022/08/02 12:13:16;;;;;;;63.33;51.95;;;27.20;54.60;;;;;;4961935;28;90031;-57
2022/08/02 12:15:44;;;;;;;64.50;52.00;;;27.30;54.70;;;;;;4949588;28;93934;-58
2022/08/02 12:20:59;;;;;;;63.25;51.92;;;27.30;54.60;;;;;;4941079;28;94829;-59
2022/08/02 12:23:25;;;;;;;64.05;52.17;;;27.30;54.60;;;;;;4954101;28;91089;-59
2022/08/02 12:26:08;;;;;;;63.22;52.08;;;27.30;54.50;;;;;;4946977;28;91320;-59
2022/08/02 12:28:39;;;;;;;63.25;52.03;;;27.30;54.50;;;;;;4937371;28;90232;-59
2022/08/02 12:31:10;;;;;;;64.53;52.22;;;27.30;54.50;;;;;;4940389;28;91418;-57
2022/08/02 12:33:50;;;;;;;62.90;51.88;;;27.30;54.50;;;;;;4949370;28;90098;-59
2022/08/02 12:36:21;;;;;;;63.30;52.07;;;27.30;54.60;;;;;;4937535;28;89753;-59
2022/08/02 12:38:54;;;;;;;63.33;52.03;;;27.30;54.70;;;;;;4949817;28;89968;-58
2022/08/02 12:41:20;;;;;;;63.10;52.08;;;27.10;55.20;;;;;;4945490;28;88823;-59
2022/08/02 12:43:48;;;;;;;62.83;52.08;;;26.90;55.70;;;;;;4941365;28;90356;-60